Weather at Savannakhet Airport

Public forecast

Using degrees Celsius for public forecast. Weather courtesy of forecast.io.

Current aviation weather report (METAR) for Savannakhet Airport

Report is more than 2 hours old.

Retrieved 2021/06/19 12:00 UTC (2 hours ago):

VLSK 191200Z 18002KT 4000 HZ SCT020 SCT100 33/23 Q1007 NOSIG

Aviation forecast (TAF) for Savannakhet Airport

Retrieved 2021/06/19 12:00 UTC (2 hours ago):

TAF VLSK 191100Z 1912/2012 22004KT 9000 SCT020 FEW100